Mad River Glen, Vermont
Current Conditions -  °F | °C
As of 2:13 PM on Monday 22 Dec 2014 (Local Time) from KMPV Reporting Station
Overcast Overcast  
Wind Chill: -1°   Ceiling: 3400
Heat Index: -1°   Visibility: 7mi
Dew Point: -4°   Wind: 3mph
Humidity: 82%   Direction: 40°NE
Pressure: 30.31"   Gusts: NA
Location:  44.1924°N, 72.8443°W
Report Text: KMPV 221913Z AUTO 04003KT 7SM SCT015 OVC034 M01/M04 A3031 RMK AO2 T10111039
Loading
Personal Weather Stations






























Interactive Weather Map New forecast layout! Learn more

10-Day Weather Forecast

Advertisements
Track Severe Weather on mobile